createdAt,value
2024-05-09T00:05:17.485Z,11.2
2024-05-09T00:15:17.443Z,11
2024-05-09T00:25:17.410Z,11.3
2024-05-09T00:35:17.416Z,11.3
2024-05-09T00:45:17.428Z,11.2
2024-05-09T00:55:17.279Z,10.8
2024-05-09T01:05:17.248Z,10.9
2024-05-09T01:15:17.211Z,10.7
2024-05-09T01:25:17.202Z,10.3
2024-05-09T01:35:17.145Z,10.4
2024-05-09T01:45:17.099Z,10.2
2024-05-09T01:55:17.071Z,9.9
2024-05-09T02:05:17.046Z,10.1
2024-05-09T02:15:17.019Z,9.8
2024-05-09T02:25:16.958Z,10
2024-05-09T02:35:16.908Z,9.6
2024-05-09T02:45:16.882Z,9.7
2024-05-09T02:55:16.870Z,9.7
2024-05-09T03:05:16.817Z,9.7
2024-05-09T03:15:16.786Z,9.5
2024-05-09T03:25:16.738Z,9.3
2024-05-09T03:35:16.734Z,9.2
2024-05-09T03:45:16.693Z,9.2
2024-05-09T03:55:16.642Z,9.3
2024-05-09T04:05:16.605Z,9.2
2024-05-09T04:15:16.611Z,9.1
2024-05-09T04:25:16.552Z,8.9
2024-05-09T04:35:16.492Z,9
2024-05-09T04:45:16.470Z,8.9
2024-05-09T04:55:16.436Z,9.1
2024-05-09T05:05:16.402Z,9.1
2024-05-09T05:15:16.349Z,9.2
2024-05-09T05:25:16.352Z,9.2
2024-05-09T05:35:16.317Z,9.4
2024-05-09T05:45:16.258Z,9.5
2024-05-09T05:55:16.236Z,9.6
2024-05-09T06:05:17.087Z,9.9
2024-05-09T06:15:16.185Z,10.1
2024-05-09T06:25:16.186Z,10.3
2024-05-09T06:35:16.078Z,10.5
2024-05-09T06:45:16.048Z,10.6
2024-05-09T06:55:16.036Z,10.9
2024-05-09T07:05:15.993Z,11.1
2024-05-09T07:15:16.036Z,11.3
2024-05-09T07:25:15.936Z,11.5
2024-05-09T07:35:15.873Z,11.7
2024-05-09T07:45:15.828Z,11.9
2024-05-09T07:55:15.836Z,12.2
2024-05-09T08:05:15.788Z,12.5
2024-05-09T08:15:15.720Z,12.6
2024-05-09T08:25:15.714Z,12.9
2024-05-09T08:35:15.711Z,13
2024-05-09T08:45:15.867Z,13.2
2024-05-09T08:55:15.587Z,13.6
2024-05-09T09:05:15.545Z,14
2024-05-09T09:15:15.491Z,14.2
2024-05-09T09:25:15.468Z,14.5
2024-05-09T09:35:15.447Z,14.9
2024-05-09T09:45:15.402Z,15.4
2024-05-09T09:55:15.350Z,15.5
2024-05-09T10:05:15.306Z,15.8
2024-05-09T10:15:15.276Z,16.3
2024-05-09T10:25:15.343Z,16.6
2024-05-09T10:35:15.397Z,16.5
2024-05-09T10:45:15.153Z,16.6
2024-05-09T10:55:16.203Z,16.9
2024-05-09T11:05:15.131Z,17.2
2024-05-09T11:15:15.087Z,17.4
2024-05-09T11:25:15.001Z,17.7
2024-05-09T11:35:14.973Z,17.8
2024-05-09T11:45:14.923Z,17.9
2024-05-09T11:55:14.892Z,18.1
2024-05-09T12:05:14.869Z,18.2
2024-05-09T12:15:14.810Z,18.3
2024-05-09T12:25:14.764Z,18.6
2024-05-09T12:35:14.743Z,18.7
2024-05-09T12:45:14.693Z,18.4
2024-05-09T12:55:14.699Z,18.2
2024-05-09T13:05:14.632Z,18.3
2024-05-09T13:15:14.572Z,18.5
2024-05-09T13:25:14.540Z,18.7
2024-05-09T13:35:14.535Z,19.2
2024-05-09T13:45:14.456Z,19.8
2024-05-09T13:55:14.532Z,20.3
2024-05-09T14:05:14.400Z,20.6
2024-05-09T14:15:14.331Z,20.9
2024-05-09T14:25:14.299Z,21.4
2024-05-09T14:35:14.290Z,21.4
2024-05-09T14:45:14.223Z,21.2
2024-05-09T14:55:14.190Z,22
2024-05-09T15:05:14.176Z,22
2024-05-09T15:15:14.093Z,22
2024-05-09T15:25:14.059Z,22.1
2024-05-09T15:35:14.030Z,22.3
2024-05-09T15:45:14.938Z,22.3
2024-05-09T15:55:14.002Z,22.1
2024-05-09T16:05:13.924Z,22.1
2024-05-09T16:15:13.865Z,22.7
2024-05-09T16:25:13.840Z,22.8
2024-05-09T16:35:13.796Z,22.4
2024-05-09T16:45:13.766Z,22.1
2024-05-09T16:55:13.718Z,21.7
2024-05-09T17:05:13.681Z,21.6
2024-05-09T17:15:13.650Z,21.2
2024-05-09T17:25:13.604Z,20.7
2024-05-09T17:35:13.555Z,20.4
2024-05-09T17:45:13.512Z,20.3
2024-05-09T17:55:13.494Z,20.1
2024-05-09T18:05:13.493Z,19.9
2024-05-09T18:15:13.407Z,19.8
2024-05-09T18:25:13.374Z,19.8
2024-05-09T18:45:13.268Z,19.2
2024-05-09T18:55:13.251Z,19
2024-05-09T19:05:13.211Z,18.8
2024-05-09T19:15:13.153Z,18.6
2024-05-09T19:25:13.117Z,18.3
2024-05-09T19:35:13.175Z,18.2
2024-05-09T19:45:13.048Z,17.9
2024-05-09T19:55:13.013Z,17.6
2024-05-09T20:05:12.968Z,17.3
2024-05-09T20:15:12.952Z,17.1
2024-05-09T20:25:12.978Z,16.9
2024-05-09T20:35:12.831Z,16.9
2024-05-09T20:55:12.773Z,16
2024-05-09T21:05:12.738Z,15.5
2024-05-09T21:15:12.876Z,15.4
2024-05-09T21:25:12.649Z,15.2
2024-05-09T21:35:12.622Z,15
2024-05-09T21:45:12.584Z,14.8
2024-05-09T21:55:12.552Z,14.4
2024-05-09T22:05:12.523Z,14.2
2024-05-09T22:15:12.561Z,14.1
2024-05-09T22:25:12.443Z,14
2024-05-09T22:35:12.564Z,13.8
2024-05-09T22:45:12.364Z,13.5
2024-05-09T22:55:12.412Z,13.3
2024-05-09T23:05:12.303Z,13.2
2024-05-09T23:15:12.272Z,13.2
2024-05-09T23:25:12.217Z,13.3
2024-05-09T23:35:12.183Z,13.4
2024-05-09T23:45:12.137Z,13.2
2024-05-09T23:55:12.106Z,13.2
